Time;durP1;ratioP1;P1;durP2;ratioP2;P2;SDS_P1;SDS_P2;PMS_P1;PMS_P2;Temp;Humidity;BMP_temperature;BMP_pressure;BME280_temperature;BME280_humidity;BME280_pressure;Samples;Min_cycle;Max_cycle;Signal;HPM_P1;HPM_P2
2023/11/06 00:01:36;;;;;;;;;;;;;;;25.62;44.05;93097.38;5001467;28;8883;-88
2023/11/06 00:04:29;;;;;;;;;;;;;;;25.63;44.06;93096.09;5009042;28;7001;-88
2023/11/06 00:06:59;;;;;;;;;;;;;;;25.53;44.43;93090.38;4969049;28;6866;-87
2023/11/06 00:09:38;;;;;;;;;;;;;;;25.56;43.57;93086.50;4952581;28;9392;-87
2023/11/06 00:12:04;;;;;;;;;;;;;;;25.62;43.96;93094.63;4948747;29;8887;-89
2023/11/06 00:14:32;;;;;;;;;;;;;;;25.58;43.76;93100.47;4959827;28;7252;-86
2023/11/06 00:17:12;;;;;;;;;;;;;;;25.56;44.21;93103.03;4948646;29;7158;-88
2023/11/06 00:19:40;;;;;;;;;;;;;;;25.45;43.95;93100.56;4944848;28;6999;-87
2023/11/06 00:22:20;;;;;;;;;;;;;;;25.48;44.16;93118.75;4967482;28;9288;-88
2023/11/06 00:24:46;;;;;;;;;;;;;;;25.45;44.02;93133.59;4969818;28;6986;-86
2023/11/06 00:27:14;;;;;;;;;;;;;;;25.42;43.84;93123.69;4950638;28;7016;-87
2023/11/06 00:29:44;;;;;;;;;;;;;;;25.44;43.80;93140.41;4966138;28;7071;-86
2023/11/06 00:32:39;;;;;;;;;;;;;;;25.50;43.78;93152.00;4946902;29;7068;-87
2023/11/06 00:35:20;;;;;;;;;;;;;;;25.49;44.03;93150.50;4880834;29;9018;-87
2023/11/06 00:37:48;;;;;;;;;;;;;;;25.50;43.57;93160.25;4886945;29;7344;-86
2023/11/06 00:40:25;;;;;;;;;;;;;;;25.47;44.25;93164.06;4895482;29;8669;-87
2023/11/06 00:42:51;;;;;;;;;;;;;;;25.48;44.04;93162.81;4881566;29;6869;-86
2023/11/06 00:45:26;;;;;;;;;;;;;;;25.46;43.81;93173.63;4915092;29;7239;-87
2023/11/06 00:48:01;;;;;;;;;;;;;;;25.46;44.25;93173.63;4917460;29;8737;-86
2023/11/06 00:50:28;;;;;;;;;;;;;;;25.46;44.33;93181.13;4920279;29;7326;-87
2023/11/06 00:52:59;;;;;;;;;;;;;;;25.45;44.07;93182.44;4914044;29;8782;-86
2023/11/06 00:55:43;;;;;;;;;;;;;;;25.44;43.94;93181.69;4917566;29;8809;-86
2023/11/06 00:58:11;;;;;;;;;;;;;;;25.45;44.32;93182.44;4920812;29;9245;-86
2023/11/06 01:00:47;;;;;;;;;;;;;;;25.43;44.02;93182.94;4919535;29;9029;-87
2023/11/06 01:03:29;;;;;;;;;;;;;;;25.43;43.88;93182.94;4908830;29;6874;-86
2023/11/06 01:06:09;;;;;;;;;;;;;;;25.45;44.23;93187.94;4916238;29;6867;-86
2023/11/06 01:09:07;;;;;;;;;;;;;;;25.43;44.32;93186.44;4917196;29;9118;-87
2023/11/06 01:11:33;;;;;;;;;;;;;;;25.40;44.00;93173.72;4891115;29;7260;-86
2023/11/06 01:13:59;;;;;;;;;;;;;;;25.41;43.72;93182.72;4917255;29;8591;-87
2023/11/06 01:16:25;;;;;;;;;;;;;;;25.41;43.83;93194.47;4912671;29;8639;-87
2023/11/06 01:18:53;;;;;;;;;;;;;;;25.40;43.70;93176.47;4910984;29;7278;-86
2023/11/06 01:21:31;;;;;;;;;;;;;;;25.41;43.63;93182.72;4899566;29;8574;-85
2023/11/06 01:24:09;;;;;;;;;;;;;;;25.40;43.75;93187.50;4918933;29;9662;-86
2023/11/06 01:27:04;;;;;;;;;;;;;;;25.40;43.80;93176.47;4899463;29;9058;-86
2023/11/06 01:29:42;;;;;;;;;;;;;;;25.40;43.78;93176.47;4841787;29;9063;-87
2023/11/06 01:32:09;;;;;;;;;;;;;;;25.42;44.02;93184.25;4838427;29;7287;-88
2023/11/06 01:34:44;;;;;;;;;;;;;;;25.41;43.69;93188.22;4841135;29;9049;-89
2023/11/06 01:37:29;;;;;;;;;;;;;;;25.40;44.07;93192.28;4819116;29;8735;-87
2023/11/06 01:40:07;;;;;;;;;;;;;;;25.39;43.97;93190.78;4838575;29;9077;-86
2023/11/06 01:42:46;;;;;;;;;;;;;;;25.39;43.34;93182.53;4826827;29;9249;-87
2023/11/06 01:45:21;;;;;;;;;;;;;;;25.38;44.14;93184.53;4841798;29;9332;-87
2023/11/06 01:47:48;;;;;;;;;;;;;;;25.39;43.79;93191.53;4858890;29;8953;-87
2023/11/06 01:50:18;;;;;;;;;;;;;;;25.39;43.40;93188.03;4916219;29;8825;-86
2023/11/06 01:52:49;;;;;;;;;;;;;;;25.41;43.83;93191.72;4916408;29;6865;-86
2023/11/06 01:55:18;;;;;;;;;;;;;;;25.39;43.79;93190.78;4912190;29;8853;-86
2023/11/06 01:58:17;;;;;;;;;;;;;;;25.39;43.70;93196.28;4907787;29;9041;-87
2023/11/06 02:00:45;;;;;;;;;;;;;;;25.38;43.38;93200.34;4863044;29;7341;-86
2023/11/06 02:03:13;;;;;;;;;;;;;;;25.39;44.14;93205.28;4853454;29;8732;-86
2023/11/06 02:05:52;;;;;;;;;;;;;;;25.38;43.26;93214.09;4881380;29;6992;-86
2023/11/06 02:08:31;;;;;;;;;;;;;;;25.41;43.29;93221.25;4877229;29;6876;-87
2023/11/06 02:11:07;;;;;;;;;;;;;;;25.38;43.27;93214.81;4881382;29;9471;-87
2023/11/06 02:13:43;;;;;;;;;;;;;;;25.38;43.35;93216.84;4880645;29;8796;-86
2023/11/06 02:16:20;;;;;;;;;;;;;;;25.37;43.74;93215.34;4876374;29;7038;-87
2023/11/06 02:18:46;;;;;;;;;;;;;;;25.39;43.05;93212.81;4880739;29;9074;-88
2023/11/06 02:21:23;;;;;;;;;;;;;;;25.38;43.70;93212.06;4879605;29;7235;-91
2023/11/06 02:23:55;;;;;;;;;;;;;;;25.37;43.16;93216.09;4885015;29;9080;-92
2023/11/06 02:26:24;;;;;;;;;;;;;;;25.35;43.83;93209.66;4896832;29;7640;-91
2023/11/06 02:28:52;;;;;;;;;;;;;;;25.32;43.33;93208.72;4890828;29;7576;-92
2023/11/06 02:31:23;;;;;;;;;;;;;;;25.41;43.54;93221.25;4899281;29;8775;-93
2023/11/06 02:33:58;;;;;;;;;;;;;;;25.39;43.52;93224.56;4881530;29;7032;-91
2023/11/06 02:36:29;;;;;;;;;;;;;;;25.39;43.62;93227.31;4949746;28;7277;-91
2023/11/06 02:39:04;;;;;;;;;;;;;;;25.39;43.56;93221.06;5009592;28;8763;-93
2023/11/06 02:41:30;;;;;;;;;;;;;;;25.39;43.33;93218.31;5009052;28;8744;-92
2023/11/06 02:43:57;;;;;;;;;;;;;;;25.38;43.39;93228.56;5012374;28;8988;-92
2023/11/06 02:46:23;;;;;;;;;;;;;;;25.36;43.03;93224.88;5009988;28;7274;-92
2023/11/06 02:48:51;;;;;;;;;;;;;;;25.33;42.93;93228.72;4993393;28;7029;-91
2023/11/06 02:51:20;;;;;;;;;;;;;;;25.37;43.88;93240.88;5006116;28;7288;-90
2023/11/06 02:53:52;;;;;;;;;;;;;;;25.39;43.40;93246.59;4988487;28;7513;-92
2023/11/06 02:56:32;;;;;;;;;;;;;;;25.39;43.86;93240.34;4991538;28;9152;-91
2023/11/06 02:59:09;;;;;;;;;;;;;;;25.35;43.44;93245.44;4993576;28;8773;-91
2023/11/06 03:01:40;;;;;;;;;;;;;;;25.37;43.36;93248.38;5009257;28;7297;-91
2023/11/06 03:04:12;;;;;;;;;;;;;;;25.38;42.91;93250.59;4984770;28;8516;-90
2023/11/06 03:06:42;;;;;;;;;;;;;;;25.39;42.99;93263.09;4993811;28;7064;-90
2023/11/06 03:09:15;;;;;;;;;;;;;;;25.39;43.53;93259.59;5008451;28;7455;-92
2023/11/06 03:11:55;;;;;;;;;;;;;;;25.37;43.07;93256.66;5012233;28;7284;-91
2023/11/06 03:14:25;;;;;;;;;;;;;;;25.36;43.51;93249.66;5004546;28;9206;-92
2023/11/06 03:16:55;;;;;;;;;;;;;;;25.35;43.09;93251.69;4992521;28;7521;-91
2023/11/06 03:19:37;;;;;;;;;;;;;;;25.34;43.37;93255.69;4991408;28;8746;-91
2023/11/06 03:22:06;;;;;;;;;;;;;;;25.38;42.86;93247.13;5002423;28;8757;-91
2023/11/06 03:24:33;;;;;;;;;;;;;;;25.36;43.51;93246.91;4990519;28;7012;-90
2023/11/06 03:27:02;;;;;;;;;;;;;;;25.33;43.28;93256.25;4986459;28;7250;-91
2023/11/06 03:29:29;;;;;;;;;;;;;;;25.33;42.89;93248.00;5008931;28;9257;-91
2023/11/06 03:32:10;;;;;;;;;;;;;;;25.36;43.10;93266.16;4992123;28;7045;-90
2023/11/06 03:34:38;;;;;;;;;;;;;;;25.34;43.32;93261.22;4993059;28;7271;-90
2023/11/06 03:37:19;;;;;;;;;;;;;;;25.34;42.94;93265.97;4992970;28;7239;-90
2023/11/06 03:39:50;;;;;;;;;;;;;;;25.35;43.24;93261.94;4992701;28;7484;-91
2023/11/06 03:42:21;;;;;;;;;;;;;;;25.37;43.27;93264.91;4989193;28;9055;-91
2023/11/06 03:44:53;;;;;;;;;;;;;;;25.37;43.17;93262.16;4989529;28;7280;-91
2023/11/06 03:47:22;;;;;;;;;;;;;;;25.35;43.32;93265.44;4998501;28;7124;-90
2023/11/06 03:49:50;;;;;;;;;;;;;;;25.36;43.21;93266.16;4992778;28;8814;-90
2023/11/06 03:52:21;;;;;;;;;;;;;;;25.34;42.77;93268.72;4993164;28;7279;-91
2023/11/06 03:54:55;;;;;;;;;;;;;;;25.36;43.15;93275.16;4992880;28;7991;-91
2023/11/06 03:57:24;;;;;;;;;;;;;;;25.34;42.89;93274.97;4992406;28;8786;-90
2023/11/06 03:59:57;;;;;;;;;;;;;;;25.36;43.01;93277.91;5002541;28;8719;-90
2023/11/06 04:02:28;;;;;;;;;;;;;;;25.35;42.65;93279.22;4991838;28;6998;-92
2023/11/06 04:05:03;;;;;;;;;;;;;;;25.36;43.18;93285.44;4992175;28;8784;-91
2023/11/06 04:07:34;;;;;;;;;;;;;;;25.37;43.28;93295.19;4991579;28;7087;-91
2023/11/06 04:10:02;;;;;;;;;;;;;;;25.33;43.69;93287.28;4981202;28;7540;-91
2023/11/06 04:12:32;;;;;;;;;;;;;;;25.37;42.84;93292.44;4992159;28;8712;-91
2023/11/06 04:15:05;;;;;;;;;;;;;;;25.32;43.39;93293.28;4992382;28;7263;-91
2023/11/06 04:17:34;;;;;;;;;;;;;;;25.33;43.03;93294.78;5000490;28;9025;-91
2023/11/06 04:20:10;;;;;;;;;;;;;;;25.35;42.94;93294.97;5010821;28;7215;-91
2023/11/06 04:22:44;;;;;;;;;;;;;;;25.32;43.05;93296.03;5007599;28;8734;-91
2023/11/06 04:25:12;;;;;;;;;;;;;;;25.30;42.84;93299.34;4995309;28;8596;-91
2023/11/06 04:27:39;;;;;;;;;;;;;;;25.36;42.99;93310.22;4990021;28;9050;-91
2023/11/06 04:30:07;;;;;;;;;;;;;;;25.28;43.50;93292.88;5014010;28;8716;-91
2023/11/06 04:32:34;;;;;;;;;;;;;;;25.35;43.27;93306.00;4987598;28;7374;-91
2023/11/06 04:35:00;;;;;;;;;;;;;;;25.33;42.64;93305.78;5008947;28;9122;-91
2023/11/06 04:37:36;;;;;;;;;;;;;;;25.34;43.14;93301.75;4995173;28;7354;-91
2023/11/06 04:40:06;;;;;;;;;;;;;;;25.36;43.36;93307.47;4990864;28;8799;-91
2023/11/06 04:42:35;;;;;;;;;;;;;;;25.35;42.70;93314.25;5000713;28;8719;-93
2023/11/06 04:45:04;;;;;;;;;;;;;;;25.34;42.89;93307.25;4990819;28;7272;-94
2023/11/06 04:47:36;;;;;;;;;;;;;;;25.35;42.72;93312.25;5012730;28;7364;-91
2023/11/06 04:50:03;;;;;;;;;;;;;;;25.32;43.14;93316.06;5012154;28;7365;-93
2023/11/06 04:52:43;;;;;;;;;;;;;;;25.33;42.92;93311.28;4996209;28;8829;-92
2023/11/06 04:55:11;;;;;;;;;;;;;;;25.33;42.74;93319.56;4991996;28;7039;-92
2023/11/06 04:57:56;;;;;;;;;;;;;;;25.34;43.47;93323.75;4996224;28;9081;-92
2023/11/06 05:00:31;;;;;;;;;;;;;;;25.31;43.10;93316.59;4995361;28;7290;-92
2023/11/06 05:03:01;;;;;;;;;;;;;;;25.31;42.80;93311.09;4990388;28;7006;-91
2023/11/06 05:05:33;;;;;;;;;;;;;;;25.31;42.75;93325.59;4995274;28;7274;-92
2023/11/06 05:07:59;;;;;;;;;;;;;;;25.25;42.95;93313.22;4995485;28;8738;-91
2023/11/06 05:10:26;;;;;;;;;;;;;;;25.33;42.72;93314.03;4988875;28;8989;-91
2023/11/06 05:12:52;;;;;;;;;;;;;;;25.30;42.66;93315.09;4995797;28;8164;-94
2023/11/06 05:15:20;;;;;;;;;;;;;;;25.33;42.54;93314.03;5011736;28;7316;-92
2023/11/06 05:17:46;;;;;;;;;;;;;;;25.33;42.49;93319.56;4995024;28;7432;-91
2023/11/06 05:20:16;;;;;;;;;;;;;;;25.35;42.97;93322.50;5011270;28;8919;-91
2023/11/06 05:22:52;;;;;;;;;;;;;;;25.35;43.02;93323.25;4990414;28;7144;-92
2023/11/06 05:25:21;;;;;;;;;;;;;;;25.29;43.16;93314.34;4995626;28;7085;-91
2023/11/06 05:27:47;;;;;;;;;;;;;;;25.28;42.97;93312.91;4997679;28;7362;-92
2023/11/06 05:30:20;;;;;;;;;;;;;;;25.33;43.12;93323.06;4993868;28;8701;-92
2023/11/06 05:32:53;;;;;;;;;;;;;;;25.37;43.00;93325.47;4996471;28;8632;-91
2023/11/06 05:35:19;;;;;;;;;;;;;;;25.37;42.91;93325.47;5008352;28;9021;-91
2023/11/06 05:37:51;;;;;;;;;;;;;;;25.36;43.17;93318.47;5008967;28;8647;-93
2023/11/06 05:40:25;;;;;;;;;;;;;;;25.38;43.05;93322.16;4986376;28;8766;-92
2023/11/06 05:43:05;;;;;;;;;;;;;;;25.38;42.92;93329.72;4993150;28;8023;-91
2023/11/06 05:45:31;;;;;;;;;;;;;;;25.38;42.87;93337.97;4995343;28;7533;-92
2023/11/06 05:48:06;;;;;;;;;;;;;;;25.38;42.98;93340.72;4994975;28;8749;-91
2023/11/06 05:50:33;;;;;;;;;;;;;;;25.31;43.11;93324.84;4993426;28;7038;-90
2023/11/06 05:53:07;;;;;;;;;;;;;;;25.38;43.39;93330.44;4994242;28;9016;-89
2023/11/06 05:55:35;;;;;;;;;;;;;;;25.39;43.87;93339.44;5008504;28;9357;-89
2023/11/06 05:58:06;;;;;;;;;;;;;;;25.38;43.79;93343.47;4993884;28;9220;-89
2023/11/06 06:00:38;;;;;;;;;;;;;;;25.37;43.89;93344.72;5009628;28;7243;-89
2023/11/06 06:03:20;;;;;;;;;;;;;;;25.39;43.55;93353.94;4994585;28;8748;-90
2023/11/06 06:05:50;;;;;;;;;;;;;;;25.45;43.45;93356.59;5009682;28;7019;-90
2023/11/06 06:08:25;;;;;;;;;;;;;;;25.50;43.19;93360.47;5010210;28;7032;-90
2023/11/06 06:11:00;;;;;;;;;;;;;;;25.55;43.16;93360.38;4994583;28;9548;-90
2023/11/06 06:13:33;;;;;;;;;;;;;;;25.59;43.37;93371.06;5009326;28;7365;-90
2023/11/06 06:16:01;;;;;;;;;;;;;;;25.61;42.77;93374.00;4984531;28;7080;-90
2023/11/06 06:18:32;;;;;;;;;;;;;;;25.58;42.96;93366.84;4986232;28;7630;-91
2023/11/06 06:21:15;;;;;;;;;;;;;;;25.54;43.13;93366.41;4990218;28;7075;-91
2023/11/06 06:23:47;;;;;;;;;;;;;;;25.56;43.56;93369.34;5004398;28;7573;-92
2023/11/06 06:26:13;;;;;;;;;;;;;;;25.60;43.25;93370.50;5009153;28;9221;-90
2023/11/06 06:28:45;;;;;;;;;;;;;;;25.62;42.98;93376.22;4986446;28;7262;-91
2023/11/06 06:31:14;;;;;;;;;;;;;;;25.63;43.01;93380.47;4991553;28;7312;-90
2023/11/06 06:33:44;;;;;;;;;;;;;;;25.64;43.16;93376.44;4992789;28;8726;-90
2023/11/06 06:36:13;;;;;;;;;;;;;;;25.64;42.28;93379.19;4986369;28;6864;-90
2023/11/06 06:38:49;;;;;;;;;;;;;;;25.64;42.02;93392.97;4992998;28;7015;-90
2023/11/06 06:41:20;;;;;;;;;;;;;;;25.57;42.45;93390.13;5005192;28;8776;-89
2023/11/06 06:43:55;;;;;;;;;;;;;;;25.52;42.75;93383.47;4997825;28;7034;-90
2023/11/06 06:46:25;;;;;;;;;;;;;;;25.50;43.10;93394.28;4990561;28;7267;-90
2023/11/06 06:48:56;;;;;;;;;;;;;;;25.49;43.03;93392.06;4992717;28;10017;-90
2023/11/06 06:51:24;;;;;;;;;;;;;;;25.49;43.01;93390.03;4993092;28;8777;-90
2023/11/06 06:53:54;;;;;;;;;;;;;;;25.50;43.20;93407.28;4990927;28;7249;-90
2023/11/06 06:56:32;;;;;;;;;;;;;;;25.50;43.05;93408.03;4992977;28;7001;-90
2023/11/06 06:59:02;;;;;;;;;;;;;;;25.50;43.17;93416.28;4988534;28;7011;-89
2023/11/06 07:01:28;;;;;;;;;;;;;;;25.48;43.23;93413.34;5009103;28;8741;-88
2023/11/06 07:03:59;;;;;;;;;;;;;;;25.45;43.38;93414.41;5013965;28;7060;-86
2023/11/06 07:06:28;;;;;;;;;;;;;;;25.47;43.56;93416.63;4993125;28;7234;-86
2023/11/06 07:09:07;;;;;;;;;;;;;;;25.47;43.61;93422.84;5009183;28;9068;-86
2023/11/06 07:11:42;;;;;;;;;;;;;;;25.49;43.82;93422.34;4992613;28;7021;-86
2023/11/06 07:14:16;;;;;;;;;;;;;;;25.50;43.76;93432.06;4990875;28;9132;-87
2023/11/06 07:16:52;;;;;;;;;;;;;;;25.49;43.22;93434.06;5008182;28;7267;-88
2023/11/06 07:19:18;;;;;;;;;;;;;;;25.48;43.07;93429.09;5008947;28;8954;-87
2023/11/06 07:21:44;;;;;;;;;;;;;;;25.47;43.04;93439.38;4985687;28;8824;-87
2023/11/06 07:24:21;;;;;;;;;;;;;;;25.43;43.17;93423.19;4992534;28;7426;-86
2023/11/06 07:26:56;;;;;;;;;;;;;;;25.46;43.79;93431.66;4989878;28;8571;-87
2023/11/06 07:29:31;;;;;;;;;;;;;;;25.46;43.83;93432.41;5008244;28;8686;-87
2023/11/06 07:32:05;;;;;;;;;;;;;;;25.46;43.22;93420.66;4987921;28;8559;-86
2023/11/06 07:34:39;;;;;;;;;;;;;;;25.48;43.48;93429.09;5008107;28;7345;-87
2023/11/06 07:37:12;;;;;;;;;;;;;;;25.48;43.36;93429.84;4992534;28;7253;-86
2023/11/06 07:39:49;;;;;;;;;;;;;;;25.51;43.94;93437.06;4991598;28;7408;-86
2023/11/06 07:42:17;;;;;;;;;;;;;;;25.52;43.56;93438.53;4992223;28;7242;-86
2023/11/06 07:44:51;;;;;;;;;;;;;;;25.49;43.93;93430.59;4990326;28;8796;-87
2023/11/06 07:47:46;;;;;;;;;;;;;;;25.51;44.04;93450.81;4992252;28;7305;-87
2023/11/06 07:50:23;;;;;;;;;;;;;;;25.51;43.08;93444.56;4980749;28;7065;-90
2023/11/06 07:52:58;;;;;;;;;;;;;;;25.56;43.83;93446.44;4988625;28;7296;-89
2023/11/06 07:55:25;;;;;;;;;;;;;;;25.56;43.68;93449.19;4988457;28;8100;-87
2023/11/06 07:57:55;;;;;;;;;;;;;;;25.54;43.76;93449.75;4970821;28;7433;-87
2023/11/06 08:00:38;;;;;;;;;;;;;;;25.56;43.52;93449.19;4973501;28;7312;-87
2023/11/06 08:03:08;;;;;;;;;;;;;;;25.55;43.95;93445.00;4963722;28;8302;-87
2023/11/06 08:05:36;;;;;;;;;;;;;;;25.60;43.79;93453.13;4982165;28;7036;-86
2023/11/06 08:08:03;;;;;;;;;;;;;;;25.60;43.34;93458.63;4987138;28;7097;-88
2023/11/06 08:10:34;;;;;;;;;;;;;;;25.59;43.83;93451.66;4967629;28;6937;-86
2023/11/06 08:13:03;;;;;;;;;;;;;;;25.63;43.39;93445.81;4973743;28;8692;-90
2023/11/06 08:15:29;;;;;;;;;;;;;;;25.65;43.77;93465.28;4974649;28;7278;-91
2023/11/06 08:17:59;;;;;;;;;;;;;;;25.61;43.65;93460.13;4971648;28;9031;-91
2023/11/06 08:20:39;;;;;;;;;;;;;;;25.67;43.30;93457.97;4972012;28;7038;-92
2023/11/06 08:23:44;;;;;;;;;;;;;;;25.70;43.83;93461.69;4985298;28;7289;-91
2023/11/06 08:26:13;;;;;;;;;;;;;;;25.69;42.99;93471.94;4905595;29;8742;-92
2023/11/06 08:28:48;;;;;;;;;;;;;;;25.75;42.93;93460.84;4917062;29;7093;-91
2023/11/06 08:31:24;;;;;;;;;;;;;;;25.74;43.07;93479.38;4933896;29;9004;-91
2023/11/06 08:33:52;;;;;;;;;;;;;;;25.74;43.14;93468.34;4913988;29;8722;-92
2023/11/06 08:36:20;;;;;;;;;;;;;;;25.80;43.12;93473.72;4929256;29;7272;-91
2023/11/06 08:38:46;;;;;;;;;;;;;;;25.78;42.95;93468.75;4932573;29;8996;-91
2023/11/06 08:41:14;;;;;;;;;;;;;;;25.79;43.28;93473.00;4935954;29;6895;-91
2023/11/06 08:43:52;;;;;;;;;;;;;;;25.78;42.94;93474.25;4919795;29;7138;-91
2023/11/06 08:46:27;;;;;;;;;;;;;;;25.74;43.58;93471.09;4936011;29;8763;-92
2023/11/06 08:48:59;;;;;;;;;;;;;;;25.78;43.06;93474.25;4934755;29;7401;-91
2023/11/06 08:51:39;;;;;;;;;;;;;;;25.81;43.51;93477.97;4934147;29;6932;-92
2023/11/06 08:54:09;;;;;;;;;;;;;;;25.82;43.13;93474.66;4918378;29;7267;-91
2023/11/06 08:56:44;;;;;;;;;;;;;;;25.78;43.22;93470.75;4928115;29;9035;-92
2023/11/06 08:59:16;;;;;;;;;;;;;;;25.81;43.15;93475.22;4936762;28;7040;-90
2023/11/06 09:01:55;;;;;;;;;;;;;;;25.89;42.59;93476.03;4987694;28;9309;-89
2023/11/06 09:04:27;;;;;;;;;;;;;;;25.84;43.01;93472.13;4989085;28;8830;-91
2023/11/06 09:06:53;;;;;;;;;;;;;;;25.83;43.08;93469.91;4991966;28;6869;-91
2023/11/06 09:09:34;;;;;;;;;;;;;;;25.87;43.36;93465.56;4989768;28;7035;-90
2023/11/06 09:12:00;;;;;;;;;;;;;;;25.91;43.14;93474.22;5006228;28;8912;-90
2023/11/06 09:14:34;;;;;;;;;;;;;;;25.93;43.15;93481.94;4998339;28;9215;-91
2023/11/06 09:17:10;;;;;;;;;;;;;;;25.93;43.10;93468.91;4995166;28;8742;-90
2023/11/06 09:19:43;;;;;;;;;;;;;;;25.94;42.33;93478.69;4988935;28;9137;-90
2023/11/06 09:22:09;;;;;;;;;;;;;;;25.88;42.85;93469.78;4995617;28;8622;-90
2023/11/06 09:24:47;;;;;;;;;;;;;;;25.98;43.33;93476.34;4993464;28;10220;-90
2023/11/06 09:27:19;;;;;;;;;;;;;;;25.93;43.19;93471.69;4994933;28;7248;-89
2023/11/06 09:29:59;;;;;;;;;;;;;;;25.98;42.59;93479.09;4999752;28;7063;-90
2023/11/06 09:32:27;;;;;;;;;;;;;;;25.99;43.15;93477.78;4988714;28;9012;-90
2023/11/06 09:35:11;;;;;;;;;;;;;;;26.00;43.20;93479.28;4992921;28;7156;-90
2023/11/06 09:37:37;;;;;;;;;;;;;;;26.03;43.18;93485.75;4997105;28;9101;-90
2023/11/06 09:40:07;;;;;;;;;;;;;;;26.01;42.52;93480.03;4994489;28;8738;-89
2023/11/06 09:42:34;;;;;;;;;;;;;;;26.05;43.03;93486.69;4995294;28;7584;-90
2023/11/06 09:45:04;;;;;;;;;;;;;;;26.03;42.70;93486.47;4992293;28;7277;-90
2023/11/06 09:47:50;;;;;;;;;;;;;;;26.05;42.71;93492.22;4998282;28;8832;-90
2023/11/06 09:50:19;;;;;;;;;;;;;;;26.07;42.84;93494.44;4995347;28;8767;-89
2023/11/06 09:52:56;;;;;;;;;;;;;;;26.07;43.18;93486.91;5002586;28;7330;-90
2023/11/06 09:55:34;;;;;;;;;;;;;;;26.05;42.90;93486.69;5011730;28;7650;-90
2023/11/06 09:58:03;;;;;;;;;;;;;;;26.08;42.97;93490.38;4991846;28;7244;-90
2023/11/06 10:00:29;;;;;;;;;;;;;;;26.06;42.57;93482.66;4993280;28;7266;-90
2023/11/06 10:03:03;;;;;;;;;;;;;;;26.07;42.89;93484.16;5016433;28;8764;-89
2023/11/06 10:05:33;;;;;;;;;;;;;;;26.10;42.73;93482.34;5025067;28;8770;-90
2023/11/06 10:08:01;;;;;;;;;;;;;;;26.09;43.17;93492.66;4995788;28;9128;-90
2023/11/06 10:10:56;;;;;;;;;;;;;;;26.10;42.68;93494.09;4992686;28;6864;-89
2023/11/06 10:13:24;;;;;;;;;;;;;;;26.10;42.77;93505.13;4995670;28;7269;-90
2023/11/06 10:15:51;;;;;;;;;;;;;;;26.10;43.40;93504.38;4994456;28;7556;-89
2023/11/06 10:18:21;;;;;;;;;;;;;;;26.03;42.31;93489.22;5012093;28;9124;-90
2023/11/06 10:20:55;;;;;;;;;;;;;;;26.12;43.12;93507.38;5006496;28;7315;-90
2023/11/06 10:23:37;;;;;;;;;;;;;;;26.11;42.89;93505.88;4992691;28;7291;-90
2023/11/06 10:26:17;;;;;;;;;;;;;;;26.11;43.22;93514.16;5008396;28;8568;-90
2023/11/06 10:29:15;;;;;;;;;;;;;;;26.12;43.00;93507.38;4989093;28;8786;-90
2023/11/06 10:31:48;;;;;;;;;;;;;;;26.12;42.99;93496.34;4997060;28;9159;-90
2023/11/06 10:34:33;;;;;;;;;;;;;;;26.11;43.21;93500.38;4993422;28;7278;-90
2023/11/06 10:37:09;;;;;;;;;;;;;;;26.10;43.05;93496.88;5004148;28;7282;-90
2023/11/06 10:39:57;;;;;;;;;;;;;;;26.10;43.03;93493.38;4995950;28;8763;-90
2023/11/06 10:42:26;;;;;;;;;;;;;;;26.08;42.38;93488.41;4990048;28;7141;-90
2023/11/06 10:44:59;;;;;;;;;;;;;;;26.11;43.01;93492.84;4992587;28;9018;-89
2023/11/06 10:47:27;;;;;;;;;;;;;;;26.09;43.49;93502.94;5010989;28;8774;-90
2023/11/06 10:50:12;;;;;;;;;;;;;;;26.10;43.24;93515.41;4999584;28;9015;-89
2023/11/06 10:53:14;;;;;;;;;;;;;;;26.11;42.92;93506.63;4995241;28;8556;-90
2023/11/06 10:55:47;;;;;;;;;;;;;;;26.11;43.17;93514.91;4958507;28;7247;-90
2023/11/06 10:58:21;;;;;;;;;;;;;;;26.12;42.86;93502.59;4929801;28;8720;-90
2023/11/06 11:00:55;;;;;;;;;;;;;;;26.13;42.96;93503.31;4951750;28;9011;-90
2023/11/06 11:03:24;;;;;;;;;;;;;;;26.15;43.06;93506.28;4937501;28;7007;-89
2023/11/06 11:05:58;;;;;;;;;;;;;;;26.10;42.85;93501.63;4941422;28;7104;-90
2023/11/06 11:08:35;;;;;;;;;;;;;;;26.15;43.23;93498.03;4946161;28;8719;-89
2023/11/06 11:11:05;;;;;;;;;;;;;;;26.14;42.98;93496.56;4937953;28;7318;-90
2023/11/06 11:14:03;;;;;;;;;;;;;;;26.16;43.41;93491.97;4941023;28;6878;-90
2023/11/06 11:16:57;;;;;;;;;;;;;;;26.20;42.91;93502.69;4919515;29;7248;-90
2023/11/06 11:20:03;;;;;;;;;;;;;;;26.22;43.27;93511.16;4931293;29;7084;-90
2023/11/06 11:27:07;;;;;;;;;;;;;;;26.17;42.98;93490.69;4799955;29;7351;-89
2023/11/06 11:30:00;;;;;;;;;;;;;;;26.23;42.54;93506.38;4727578;30;7946;-89
2023/11/06 11:32:37;;;;;;;;;;;;;;;26.26;43.13;93497.03;4738964;29;7022;-89
2023/11/06 11:35:40;;;;;;;;;;;;;;;26.28;42.97;93503.47;4750471;30;8755;-90
2023/11/06 11:38:21;;;;;;;;;;;;;;;26.32;43.07;93506.63;4785346;30;7034;-90
2023/11/06 11:41:12;;;;;;;;;;;;;;;26.30;43.21;93502.94;4768549;30;6879;-90
2023/11/06 11:43:52;;;;;;;;;;;;;;;26.28;43.02;93500.72;4785829;30;7473;-86
2023/11/06 11:46:50;;;;;;;;;;;;;;;26.32;42.75;93501.13;4784522;30;7430;-87
2023/11/06 11:49:44;;;;;;;;;;;;;;;26.29;42.82;93496.69;4767423;30;7193;-86
2023/11/06 11:52:23;;;;;;;;;;;;;;;26.32;43.25;93498.38;4782199;30;7229;-87
2023/11/06 11:55:30;;;;;;;;;;;;;;;26.34;43.26;93503.38;4785375;30;9038;-86
2023/11/06 11:58:07;;;;;;;;;;;;;;;26.38;43.28;93507.25;4802475;29;9050;-87
2023/11/06 12:00:46;;;;;;;;;;;;;;;26.38;43.24;93507.25;4803303;29;7510;-86
2023/11/06 12:03:38;;;;;;;;;;;;;;;26.41;43.03;93519.22;4833234;29;7229;-87
2023/11/06 12:06:09;;;;;;;;;;;;;;;26.42;42.84;93513.19;4844470;29;7375;-89
2023/11/06 12:08:47;;;;;;;;;;;;;;;26.40;43.24;93515.75;4864495;29;7071;-88
2023/11/06 12:11:22;;;;;;;;;;;;;;;26.38;43.35;93523.06;4858412;29;7493;-88
2023/11/06 12:13:51;;;;;;;;;;;;;;;26.39;42.90;93522.53;4851142;29;8984;-88
2023/11/06 12:16:19;;;;;;;;;;;;;;;26.37;43.17;93527.84;4860610;29;7589;-89
2023/11/06 12:18:57;;;;;;;;;;;;;;;26.40;43.03;93526.78;4870069;29;7276;-87
2023/11/06 12:21:32;;;;;;;;;;;;;;;26.37;43.22;93522.31;4877173;29;8723;-87
2023/11/06 12:24:04;;;;;;;;;;;;;;;26.41;43.21;93521.97;4867145;29;7428;-88
2023/11/06 12:26:32;;;;;;;;;;;;;;;26.42;42.79;93534.50;4854967;29;7327;-88
2023/11/06 12:29:01;;;;;;;;;;;;;;;26.39;42.86;93522.53;4874092;29;7335;-88
2023/11/06 12:31:41;;;;;;;;;;;;;;;26.40;43.03;93531.53;4873604;29;8776;-86
2023/11/06 12:34:24;;;;;;;;;;;;;;;26.38;43.01;93517.56;4885862;29;7036;-87
2023/11/06 12:37:01;;;;;;;;;;;;;;;26.42;42.88;93528.97;4894836;29;7463;-87
2023/11/06 12:39:33;;;;;;;;;;;;;;;26.43;42.55;93522.19;4880247;29;7137;-87
2023/11/06 12:42:03;;;;;;;;;;;;;;;26.38;42.85;93514.78;4895437;28;7055;-87
2023/11/06 12:44:41;;;;;;;;;;;;;;;26.43;42.93;93530.44;4996327;28;8858;-87
2023/11/06 12:47:13;;;;;;;;;;;;;;;26.42;42.80;93524.22;4995982;28;8997;-87
2023/11/06 12:49:52;;;;;;;;;;;;;;;26.42;42.87;93526.22;4994180;28;8714;-87
2023/11/06 12:52:26;;;;;;;;;;;;;;;26.41;43.33;93524.72;4989616;28;7275;-92
2023/11/06 12:54:57;;;;;;;;;;;;;;;26.41;42.27;93521.97;4993913;28;9328;-92
2023/11/06 12:57:31;;;;;;;;;;;;;;;26.42;42.81;93521.47;4995538;28;8179;-92
2023/11/06 13:00:22;;;;;;;;;;;;;;;26.42;42.74;93518.69;5013179;28;7007;-92
2023/11/06 13:02:51;;;;;;;;;;;;;;;26.42;42.70;93512.44;4991815;28;7545;-93
2023/11/06 13:05:20;;;;;;;;;;;;;;;26.43;42.57;93517.41;4994486;28;8737;-91
2023/11/06 13:07:52;;;;;;;;;;;;;;;26.44;42.95;93520.91;4991900;28;8822;-93
2023/11/06 13:10:22;;;;;;;;;;;;;;;26.45;42.86;93523.13;4994463;28;8724;-92
2023/11/06 13:12:51;;;;;;;;;;;;;;;26.40;42.58;93513.00;5011908;28;7575;-91
2023/11/06 13:15:19;;;;;;;;;;;;;;;26.43;42.85;93516.66;4995906;28;7231;-93
2023/11/06 13:17:49;;;;;;;;;;;;;;;26.45;42.50;93522.38;4989400;28;7277;-91
2023/11/06 13:20:35;;;;;;;;;;;;;;;26.43;42.53;93522.19;4991833;28;8826;-92
2023/11/06 13:23:12;;;;;;;;;;;;;;;26.44;42.91;93523.66;4995027;28;7258;-92
2023/11/06 13:25:44;;;;;;;;;;;;;;;26.45;42.31;93523.13;4995292;28;7176;-91
2023/11/06 13:28:11;;;;;;;;;;;;;;;26.46;42.91;93524.63;4999089;28;8753;-92
2023/11/06 13:30:42;;;;;;;;;;;;;;;26.46;42.76;93518.34;4990504;28;9029;-93
2023/11/06 13:33:08;;;;;;;;;;;;;;;26.38;42.66;93515.50;5014572;28;8684;-91
2023/11/06 13:35:42;;;;;;;;;;;;;;;26.44;42.97;93520.91;4994976;28;7277;-92
2023/11/06 13:38:11;;;;;;;;;;;;;;;26.38;42.83;93509.28;4994540;28;9086;-92